sensor_id;sensor_type;location;lat;lon;timestamp;pressure;altitude;pressure_sealevel;temperature;humidity
69766;BME280;57039;48.014;21.384;2022-10-30T00:00:21;101532.53;;;11.81;100.00
69766;BME280;57039;48.014;21.384;2022-10-30T00:01:24;101529.06;;;11.81;100.00
69766;BME280;57039;48.014;21.384;2022-10-30T00:02:27;101521.25;;;11.79;100.00
69766;BME280;57039;48.014;21.384;2022-10-30T00:03:30;101523.03;;;11.79;100.00
69766;BME280;57039;48.014;21.384;2022-10-30T00:04:33;101514.47;;;11.74;100.00
69766;BME280;57039;48.014;21.384;2022-10-30T00:05:35;101514.47;;;11.74;100.00
69766;BME280;57039;48.014;21.384;2022-10-30T00:06:39;101523.16;;;11.76;100.00
69766;BME280;57039;48.014;21.384;2022-10-30T00:07:41;101512.69;;;11.74;100.00
69766;BME280;57039;48.014;21.384;2022-10-30T00:08:44;101517.09;;;11.74;100.00
69766;BME280;57039;48.014;21.384;2022-10-30T00:09:47;101518.75;;;11.76;100.00
69766;BME280;57039;48.014;21.384;2022-10-30T00:10:49;101521.31;;;11.78;100.00
69766;BME280;57039;48.014;21.384;2022-10-30T00:11:53;101517.69;;;11.80;100.00
69766;BME280;57039;48.014;21.384;2022-10-30T00:12:55;101516.75;;;11.81;100.00
69766;BME280;57039;48.014;21.384;2022-10-30T00:13:59;101516.03;;;11.78;100.00
69766;BME280;57039;48.014;21.384;2022-10-30T00:15:02;101519.47;;;11.80;100.00
69766;BME280;57039;48.014;21.384;2022-10-30T00:16:06;101516.88;;;11.78;100.00
69766;BME280;57039;48.014;21.384;2022-10-30T00:17:10;101511.75;;;11.75;100.00
69766;BME280;57039;48.014;21.384;2022-10-30T00:18:12;101511.59;;;11.80;100.00
69766;BME280;57039;48.014;21.384;2022-10-30T00:19:15;101506.31;;;11.80;100.00
69766;BME280;57039;48.014;21.384;2022-10-30T00:20:18;101506.47;;;11.77;100.00
69766;BME280;57039;48.014;21.384;2022-10-30T00:21:21;101499.62;;;11.73;100.00
69766;BME280;57039;48.014;21.384;2022-10-30T00:22:24;101502.13;;;11.76;100.00
69766;BME280;57039;48.014;21.384;2022-10-30T00:23:26;101502.13;;;11.76;100.00
69766;BME280;57039;48.014;21.384;2022-10-30T00:24:29;101501.19;;;11.77;100.00
69766;BME280;57039;48.014;21.384;2022-10-30T00:25:34;101494.25;;;11.76;100.00
69766;BME280;57039;48.014;21.384;2022-10-30T00:26:37;101494.09;;;11.79;100.00
69766;BME280;57039;48.014;21.384;2022-10-30T00:27:40;101495.94;;;11.77;100.00
69766;BME280;57039;48.014;21.384;2022-10-30T00:28:43;101493.31;;;11.77;100.00
69766;BME280;57039;48.014;21.384;2022-10-30T00:29:45;101499.41;;;11.77;100.00
69766;BME280;57039;48.014;21.384;2022-10-30T00:30:48;101500.34;;;11.76;100.00
69766;BME280;57039;48.014;21.384;2022-10-30T00:31:52;101495.16;;;11.75;100.00
69766;BME280;57039;48.014;21.384;2022-10-30T00:32:56;101499.41;;;11.77;100.00
69766;BME280;57039;48.014;21.384;2022-10-30T00:33:59;101485.75;;;11.69;100.00
69766;BME280;57039;48.014;21.384;2022-10-30T00:35:03;101488.19;;;11.74;100.00
69766;BME280;57039;48.014;21.384;2022-10-30T00:36:06;101489.88;;;11.75;100.00
69766;BME280;57039;48.014;21.384;2022-10-30T00:37:09;101482.13;;;11.72;100.00
69766;BME280;57039;48.014;21.384;2022-10-30T00:38:14;101483.66;;;11.77;100.00
69766;BME280;57039;48.014;21.384;2022-10-30T00:39:16;101484.50;;;11.78;100.00
69766;BME280;57039;48.014;21.384;2022-10-30T00:40:19;101486.97;;;11.81;100.00
69766;BME280;57039;48.014;21.384;2022-10-30T00:41:23;101485.16;;;11.83;100.00
69766;BME280;57039;48.014;21.384;2022-10-30T00:42:30;101483.47;;;11.82;100.00
69766;BME280;57039;48.014;21.384;2022-10-30T00:43:36;101476.41;;;11.82;100.00
69766;BME280;57039;48.014;21.384;2022-10-30T00:44:49;101479.91;;;11.83;100.00
69766;BME280;57039;48.014;21.384;2022-10-30T00:45:55;101484.31;;;11.82;100.00
69766;BME280;57039;48.014;21.384;2022-10-30T00:47:00;101484.44;;;11.79;100.00
69766;BME280;57039;48.014;21.384;2022-10-30T00:48:08;101486.09;;;11.82;100.00
69766;BME280;57039;48.014;21.384;2022-10-30T00:49:15;101488.63;;;11.83;100.00
69766;BME280;57039;48.014;21.384;2022-10-30T00:50:29;101490.31;;;11.84;100.00
69766;BME280;57039;48.014;21.384;2022-10-30T00:51:33;101488.59;;;11.85;100.00
69766;BME280;57039;48.014;21.384;2022-10-30T00:52:41;101486.81;;;11.85;100.00
69766;BME280;57039;48.014;21.384;2022-10-30T00:53:46;101445.84;;;11.61;100.00
69766;BME280;57039;48.014;21.384;2022-10-30T00:54:51;101488.63;;;11.83;100.00
69766;BME280;57039;48.014;21.384;2022-10-30T00:55:59;101484.22;;;11.84;100.00
69766;BME280;57039;48.014;21.384;2022-10-30T00:57:05;101481.59;;;11.84;100.00
69766;BME280;57039;48.014;21.384;2022-10-30T00:58:13;101478.09;;;11.85;100.00
69766;BME280;57039;48.014;21.384;2022-10-30T00:59:22;101459.94;;;11.79;100.00
69766;BME280;57039;48.014;21.384;2022-10-30T01:00:28;101467.03;;;11.77;100.00
69766;BME280;57039;48.014;21.384;2022-10-30T01:01:37;101470.59;;;11.76;100.00
69766;BME280;57039;48.014;21.384;2022-10-30T01:02:41;101474.13;;;11.75;100.00
69766;BME280;57039;48.014;21.384;2022-10-30T01:03:45;101472.28;;;11.77;100.00
69766;BME280;57039;48.014;21.384;2022-10-30T01:04:53;101452.38;;;11.71;100.00
69766;BME280;57039;48.014;21.384;2022-10-30T01:06:00;101456.66;;;11.74;100.00
69766;BME280;57039;48.014;21.384;2022-10-30T01:07:13;101471.28;;;11.79;100.00
69766;BME280;57039;48.014;21.384;2022-10-30T01:08:17;101470.38;;;11.80;100.00
69766;BME280;57039;48.014;21.384;2022-10-30T01:09:21;101472.06;;;11.81;100.00
69766;BME280;57039;48.014;21.384;2022-10-30T01:10:24;101479.91;;;11.83;100.00
69766;BME280;57039;48.014;21.384;2022-10-30T01:11:27;101473.69;;;11.84;100.00
69766;BME280;57039;48.014;21.384;2022-10-30T01:12:30;101469.28;;;11.84;100.00
69766;BME280;57039;48.014;21.384;2022-10-30T01:13:34;101470.19;;;11.85;100.00
69766;BME280;57039;48.014;21.384;2022-10-30T01:14:42;101464.94;;;11.85;100.00
69766;BME280;57039;48.014;21.384;2022-10-30T01:16:03;101462.41;;;11.82;100.00
69766;BME280;57039;48.014;21.384;2022-10-30T01:18:57;101462.56;;;11.79;100.00
69766;BME280;57039;48.014;21.384;2022-10-30T01:20:26;101465.06;;;11.82;100.00
69766;BME280;57039;48.014;21.384;2022-10-30T01:23:03;101463.19;;;11.84;100.00
69766;BME280;57039;48.014;21.384;2022-10-30T01:25:37;101469.28;;;11.86;100.00
69766;BME280;57039;48.014;21.384;2022-10-30T01:26:59;101470.06;;;11.88;100.00
69766;BME280;57039;48.014;21.384;2022-10-30T01:28:34;101477.06;;;11.87;100.00
69766;BME280;57039;48.014;21.384;2022-10-30T01:30:07;101462.22;;;11.86;100.00
69766;BME280;57039;48.014;21.384;2022-10-30T01:35:03;101456.12;;;11.86;100.00
69766;BME280;57039;48.014;21.384;2022-10-30T01:36:27;101456.22;;;11.83;100.00
69766;BME280;57039;48.014;21.384;2022-10-30T01:37:37;101455.28;;;11.85;100.00
69766;BME280;57039;48.014;21.384;2022-10-30T01:38:46;101450.87;;;11.86;100.00
69766;BME280;57039;48.014;21.384;2022-10-30T01:39:51;101452.66;;;11.85;100.00
69766;BME280;57039;48.014;21.384;2022-10-30T01:40:55;101446.53;;;11.85;100.00
69766;BME280;57039;48.014;21.384;2022-10-30T01:41:57;101443.81;;;11.86;100.00
69766;BME280;57039;48.014;21.384;2022-10-30T01:43:00;101450.00;;;11.85;100.00
69766;BME280;57039;48.014;21.384;2022-10-30T01:44:10;101448.22;;;11.86;100.00
69766;BME280;57039;48.014;21.384;2022-10-30T01:46:35;101452.66;;;11.85;100.00
69766;BME280;57039;48.014;21.384;2022-10-30T01:51:30;101445.47;;;11.89;100.00
69766;BME280;57039;48.014;21.384;2022-10-30T01:54:56;101451.78;;;11.85;100.00
69766;BME280;57039;48.014;21.384;2022-10-30T01:56:17;101453.50;;;11.86;100.00
69766;BME280;57039;48.014;21.384;2022-10-30T01:58:42;101458.75;;;11.86;100.00
69766;BME280;57039;48.014;21.384;2022-10-30T02:00:01;101460.44;;;11.87;100.00
69766;BME280;57039;48.014;21.384;2022-10-30T02:01:14;101463.94;;;11.87;100.00
69766;BME280;57039;48.014;21.384;2022-10-30T02:02:17;101463.03;;;11.88;100.00
69766;BME280;57039;48.014;21.384;2022-10-30T02:03:20;101467.69;;;11.82;100.00
69766;BME280;57039;48.014;21.384;2022-10-30T02:04:25;101467.50;;;11.86;100.00
69766;BME280;57039;48.014;21.384;2022-10-30T02:05:38;101476.22;;;11.87;100.00
69766;BME280;57039;48.014;21.384;2022-10-30T02:06:44;101466.81;;;11.81;100.00
69766;BME280;57039;48.014;21.384;2022-10-30T02:07:47;101480.59;;;11.88;100.00
69766;BME280;57039;48.014;21.384;2022-10-30T02:08:54;101476.22;;;11.87;100.00
69766;BME280;57039;48.014;21.384;2022-10-30T02:09:57;101481.44;;;11.88;100.00
69766;BME280;57039;48.014;21.384;2022-10-30T02:11:01;101476.22;;;11.87;100.00
69766;BME280;57039;48.014;21.384;2022-10-30T02:12:06;101449.69;;;11.73;100.00
69766;BME280;57039;48.014;21.384;2022-10-30T02:13:11;101473.53;;;11.88;100.00
69766;BME280;57039;48.014;21.384;2022-10-30T02:14:17;101466.63;;;11.86;100.00
69766;BME280;57039;48.014;21.384;2022-10-30T02:15:22;101470.06;;;11.88;100.00
69766;BME280;57039;48.014;21.384;2022-10-30T02:16:25;101473.47;;;11.90;100.00
69766;BME280;57039;48.014;21.384;2022-10-30T02:17:27;101477.87;;;11.90;100.00
69766;BME280;57039;48.014;21.384;2022-10-30T02:18:32;101473.47;;;11.90;100.00
69766;BME280;57039;48.014;21.384;2022-10-30T02:19:36;101469.94;;;11.91;100.00
69766;BME280;57039;48.014;21.384;2022-10-30T02:20:39;101477.72;;;11.93;100.00
69766;BME280;57039;48.014;21.384;2022-10-30T02:21:42;101468.06;;;11.93;100.00
69766;BME280;57039;48.014;21.384;2022-10-30T02:22:46;101463.72;;;11.92;100.00
69766;BME280;57039;48.014;21.384;2022-10-30T02:23:49;101459.19;;;11.96;100.00
69766;BME280;57039;48.014;21.384;2022-10-30T02:24:53;101473.19;;;11.96;100.00
69766;BME280;57039;48.014;21.384;2022-10-30T02:25:58;101477.53;;;11.97;100.00
69766;BME280;57039;48.014;21.384;2022-10-30T02:27:01;101476.75;;;11.95;100.00
69766;BME280;57039;48.014;21.384;2022-10-30T02:28:04;101478.53;;;11.95;100.00
69766;BME280;57039;48.014;21.384;2022-10-30T02:29:08;101463.19;;;11.84;100.00
69766;BME280;57039;48.014;21.384;2022-10-30T02:30:12;101481.22;;;11.93;100.00
69766;BME280;57039;48.014;21.384;2022-10-30T02:31:15;101477.69;;;11.94;100.00
69766;BME280;57039;48.014;21.384;2022-10-30T02:32:17;101465.56;;;11.90;100.00
69766;BME280;57039;48.014;21.384;2022-10-30T02:33:20;101439.09;;;11.74;100.00
69766;BME280;57039;48.014;21.384;2022-10-30T02:34:24;101473.19;;;11.96;100.00
69766;BME280;57039;48.014;21.384;2022-10-30T02:35:28;101468.78;;;11.97;100.00
69766;BME280;57039;48.014;21.384;2022-10-30T02:36:31;101467.91;;;11.96;100.00
69766;BME280;57039;48.014;21.384;2022-10-30T02:37:34;101465.38;;;11.95;100.00
69766;BME280;57039;48.014;21.384;2022-10-30T02:38:42;101462.75;;;11.95;100.00
69766;BME280;57039;48.014;21.384;2022-10-30T02:39:44;101461.94;;;11.93;100.00
69766;BME280;57039;48.014;21.384;2022-10-30T02:40:49;101463.69;;;11.94;100.00
69766;BME280;57039;48.014;21.384;2022-10-30T02:41:51;101446.56;;;11.83;100.00
69766;BME280;57039;48.014;21.384;2022-10-30T02:42:54;101471.47;;;11.95;100.00
69766;BME280;57039;48.014;21.384;2022-10-30T02:43:57;101468.84;;;11.95;100.00
69766;BME280;57039;48.014;21.384;2022-10-30T02:45:00;101440.59;;;11.80;100.00
69766;BME280;57039;48.014;21.384;2022-10-30T02:46:03;101461.75;;;11.97;100.00
69766;BME280;57039;48.014;21.384;2022-10-30T02:47:07;101456.56;;;11.96;100.00
69766;BME280;57039;48.014;21.384;2022-10-30T02:48:09;101463.59;;;11.95;100.00
69766;BME280;57039;48.014;21.384;2022-10-30T02:49:18;101463.59;;;11.95;100.00
69766;BME280;57039;48.014;21.384;2022-10-30T02:50:20;101461.91;;;11.94;100.00
69766;BME280;57039;48.014;21.384;2022-10-30T02:51:26;101459.47;;;11.90;100.00
69766;BME280;57039;48.014;21.384;2022-10-30T02:52:29;101471.56;;;11.94;100.00
69766;BME280;57039;48.014;21.384;2022-10-30T02:53:32;101468.00;;;11.95;100.00
69766;BME280;57039;48.014;21.384;2022-10-30T02:54:35;101465.44;;;11.93;100.00
69766;BME280;57039;48.014;21.384;2022-10-30T02:55:38;101458.62;;;11.89;100.00
69766;BME280;57039;48.014;21.384;2022-10-30T02:56:41;101458.41;;;11.94;100.00
69766;BME280;57039;48.014;21.384;2022-10-30T02:57:44;101456.63;;;11.94;100.00
69766;BME280;57039;48.014;21.384;2022-10-30T02:58:47;101454.00;;;11.94;100.00
69766;BME280;57039;48.014;21.384;2022-10-30T02:59:50;101447.09;;;11.92;100.00
69766;BME280;57039;48.014;21.384;2022-10-30T03:00:52;101441.91;;;11.90;100.00
69766;BME280;57039;48.014;21.384;2022-10-30T03:01:55;101434.00;;;11.90;100.00
69766;BME280;57039;48.014;21.384;2022-10-30T03:02:59;101441.13;;;11.88;100.00
69766;BME280;57039;48.014;21.384;2022-10-30T03:04:02;101428.03;;;11.86;100.00
69766;BME280;57039;48.014;21.384;2022-10-30T03:05:04;101421.13;;;11.84;100.00
69766;BME280;57039;48.014;21.384;2022-10-30T03:06:09;101421.13;;;11.84;100.00
69766;BME280;57039;48.014;21.384;2022-10-30T03:07:12;101421.19;;;11.82;100.00
69766;BME280;57039;48.014;21.384;2022-10-30T03:08:15;101420.41;;;11.80;100.00
69766;BME280;57039;48.014;21.384;2022-10-30T03:09:18;101434.63;;;11.76;100.00
69766;BME280;57039;48.014;21.384;2022-10-30T03:10:21;101435.38;;;11.78;100.00
69766;BME280;57039;48.014;21.384;2022-10-30T03:11:24;101434.63;;;11.76;100.00
69766;BME280;57039;48.014;21.384;2022-10-30T03:12:28;101452.81;;;11.81;100.00
69766;BME280;57039;48.014;21.384;2022-10-30T03:13:32;101451.09;;;11.80;100.00
69766;BME280;57039;48.014;21.384;2022-10-30T03:14:35;101454.59;;;11.80;100.00
69766;BME280;57039;48.014;21.384;2022-10-30T03:15:38;101452.94;;;11.78;100.00
69766;BME280;57039;48.014;21.384;2022-10-30T03:16:40;101461.63;;;11.80;100.00
69766;BME280;57039;48.014;21.384;2022-10-30T03:17:44;101460.69;;;11.81;100.00
69766;BME280;57039;48.014;21.384;2022-10-30T03:18:47;101458.06;;;11.81;100.00
69766;BME280;57039;48.014;21.384;2022-10-30T03:19:49;101461.50;;;11.83;100.00
69766;BME280;57039;48.014;21.384;2022-10-30T03:20:57;101462.34;;;11.83;100.00
69766;BME280;57039;48.014;21.384;2022-10-30T03:22:00;101464.94;;;11.85;100.00
69766;BME280;57039;48.014;21.384;2022-10-30T03:23:03;101464.94;;;11.85;100.00
69766;BME280;57039;48.014;21.384;2022-10-30T03:24:06;101466.63;;;11.86;100.00
69766;BME280;57039;48.014;21.384;2022-10-30T03:25:09;101464.00;;;11.86;100.00
69766;BME280;57039;48.014;21.384;2022-10-30T03:26:11;101469.28;;;11.86;100.00
69766;BME280;57039;48.014;21.384;2022-10-30T03:27:15;101464.03;;;11.84;100.00
69766;BME280;57039;48.014;21.384;2022-10-30T03:28:18;101462.22;;;11.86;100.00
69766;BME280;57039;48.014;21.384;2022-10-30T03:29:21;101463.16;;;11.85;100.00
69766;BME280;57039;48.014;21.384;2022-10-30T03:30:24;101459.69;;;11.85;100.00
69766;BME280;57039;48.014;21.384;2022-10-30T03:31:29;101459.78;;;11.82;100.00
69766;BME280;57039;48.014;21.384;2022-10-30T03:32:32;101456.12;;;11.86;100.00
69766;BME280;57039;48.014;21.384;2022-10-30T03:33:36;101461.38;;;11.86;100.00
69766;BME280;57039;48.014;21.384;2022-10-30T03:34:39;101455.28;;;11.85;100.00
69766;BME280;57039;48.014;21.384;2022-10-30T03:35:43;101449.19;;;11.83;100.00
69766;BME280;57039;48.014;21.384;2022-10-30T03:36:46;101450.78;;;11.87;100.00
69766;BME280;57039;48.014;21.384;2022-10-30T03:37:49;101454.28;;;11.88;100.00
69766;BME280;57039;48.014;21.384;2022-10-30T03:38:53;101454.19;;;11.90;100.00
69766;BME280;57039;48.014;21.384;2022-10-30T03:39:56;101458.56;;;11.91;100.00
69766;BME280;57039;48.014;21.384;2022-10-30T03:40:59;101460.25;;;11.92;100.00
69766;BME280;57039;48.014;21.384;2022-10-30T03:42:01;101469.06;;;11.91;100.00
69766;BME280;57039;48.014;21.384;2022-10-30T03:43:04;101474.34;;;11.91;100.00
69766;BME280;57039;48.014;21.384;2022-10-30T03:44:07;101470.91;;;11.88;100.00
69766;BME280;57039;48.014;21.384;2022-10-30T03:45:10;101472.69;;;11.88;100.00
69766;BME280;57039;48.014;21.384;2022-10-30T03:46:13;101471.75;;;11.89;100.00
69766;BME280;57039;48.014;21.384;2022-10-30T03:47:15;101471.75;;;11.89;100.00
69766;BME280;57039;48.014;21.384;2022-10-30T03:48:20;101468.19;;;11.90;100.00
69766;BME280;57039;48.014;21.384;2022-10-30T03:49:23;101464.81;;;11.88;100.00
69766;BME280;57039;48.014;21.384;2022-10-30T03:50:27;101471.75;;;11.89;100.00
69766;BME280;57039;48.014;21.384;2022-10-30T03:51:30;101467.44;;;11.88;100.00
69766;BME280;57039;48.014;21.384;2022-10-30T03:52:33;101470.06;;;11.88;100.00
69766;BME280;57039;48.014;21.384;2022-10-30T03:53:36;101462.19;;;11.88;100.00
69766;BME280;57039;48.014;21.384;2022-10-30T03:54:39;101469.12;;;11.89;100.00
69766;BME280;57039;48.014;21.384;2022-10-30T03:55:42;101472.75;;;11.86;100.00
69766;BME280;57039;48.014;21.384;2022-10-30T03:56:45;101470.06;;;11.88;100.00
69766;BME280;57039;48.014;21.384;2022-10-30T03:57:48;101476.16;;;11.88;100.00
69766;BME280;57039;48.014;21.384;2022-10-30T03:58:50;101481.44;;;11.88;100.00
69766;BME280;57039;48.014;21.384;2022-10-30T03:59:54;101468.28;;;11.88;100.00
69766;BME280;57039;48.014;21.384;2022-10-30T04:01:03;101471.81;;;11.87;100.00
69766;BME280;57039;48.014;21.384;2022-10-30T04:02:06;101475.31;;;11.88;100.00
69766;BME280;57039;48.014;21.384;2022-10-30T04:03:10;101469.28;;;11.84;100.00
69766;BME280;57039;48.014;21.384;2022-10-30T04:04:13;101473.59;;;11.87;100.00
69766;BME280;57039;48.014;21.384;2022-10-30T04:05:18;101480.59;;;11.88;100.00
69766;BME280;57039;48.014;21.384;2022-10-30T04:06:22;101476.16;;;11.88;100.00
69766;BME280;57039;48.014;21.384;2022-10-30T04:07:24;101476.97;;;11.91;100.00
69766;BME280;57039;48.014;21.384;2022-10-30T04:08:27;101474.44;;;11.87;100.00
69766;BME280;57039;48.014;21.384;2022-10-30T04:09:31;101465.66;;;11.88;100.00
69766;BME280;57039;48.014;21.384;2022-10-30T04:10:34;101467.34;;;11.90;100.00
69766;BME280;57039;48.014;21.384;2022-10-30T04:11:37;101461.25;;;11.89;100.00
69766;BME280;57039;48.014;21.384;2022-10-30T04:12:40;101454.28;;;11.88;100.00
69766;BME280;57039;48.014;21.384;2022-10-30T04:13:44;101457.81;;;11.87;100.00
69766;BME280;57039;48.014;21.384;2022-10-30T04:14:47;101454.44;;;11.85;100.00
69766;BME280;57039;48.014;21.384;2022-10-30T04:15:49;101415.97;;;11.62;100.00
69766;BME280;57039;48.014;21.384;2022-10-30T04:16:59;101443.09;;;11.83;100.00
69766;BME280;57039;48.014;21.384;2022-10-30T04:18:03;101447.41;;;11.84;100.00
69766;BME280;57039;48.014;21.384;2022-10-30T04:19:06;101447.37;;;11.85;100.00
69766;BME280;57039;48.014;21.384;2022-10-30T04:20:09;101449.16;;;11.85;100.00
69766;BME280;57039;48.014;21.384;2022-10-30T04:21:12;101444.00;;;11.82;100.00
69766;BME280;57039;48.014;21.384;2022-10-30T04:22:15;101432.56;;;11.83;100.00
69766;BME280;57039;48.014;21.384;2022-10-30T04:23:19;101432.69;;;11.80;100.00
69766;BME280;57039;48.014;21.384;2022-10-30T04:24:22;101434.50;;;11.79;100.00
69766;BME280;57039;48.014;21.384;2022-10-30T04:25:26;101430.06;;;11.80;100.00
69766;BME280;57039;48.014;21.384;2022-10-30T04:26:30;101424.97;;;11.77;100.00
69766;BME280;57039;48.014;21.384;2022-10-30T04:27:39;101438.91;;;11.79;100.00
69766;BME280;57039;48.014;21.384;2022-10-30T04:28:42;101434.53;;;11.78;100.00
69766;BME280;57039;48.014;21.384;2022-10-30T04:29:46;101432.69;;;11.80;100.00
69766;BME280;57039;48.014;21.384;2022-10-30T04:30:48;101432.69;;;11.80;100.00
69766;BME280;57039;48.014;21.384;2022-10-30T04:31:51;101438.81;;;11.80;100.00
69766;BME280;57039;48.014;21.384;2022-10-30T04:32:55;101434.41;;;11.81;100.00
69766;BME280;57039;48.014;21.384;2022-10-30T04:33:59;101431.78;;;11.81;100.00
69766;BME280;57039;48.014;21.384;2022-10-30T04:35:02;101432.63;;;11.81;100.00
69766;BME280;57039;48.014;21.384;2022-10-30T04:36:06;101429.16;;;11.81;100.00
69766;BME280;57039;48.014;21.384;2022-10-30T04:37:08;101432.69;;;11.80;100.00
69766;BME280;57039;48.014;21.384;2022-10-30T04:38:13;101430.06;;;11.80;100.00
69766;BME280;57039;48.014;21.384;2022-10-30T04:39:17;101430.06;;;11.80;100.00
69766;BME280;57039;48.014;21.384;2022-10-30T04:40:24;101431.78;;;11.81;100.00
69766;BME280;57039;48.014;21.384;2022-10-30T04:41:27;101441.53;;;11.79;100.00
69766;BME280;57039;48.014;21.384;2022-10-30T04:42:31;101436.13;;;11.82;100.00
69766;BME280;57039;48.014;21.384;2022-10-30T04:43:34;101442.28;;;11.81;100.00
69766;BME280;57039;48.014;21.384;2022-10-30T04:44:37;101434.41;;;11.81;100.00
69766;BME280;57039;48.014;21.384;2022-10-30T04:45:40;101445.75;;;11.81;100.00
69766;BME280;57039;48.014;21.384;2022-10-30T04:46:43;101440.66;;;11.78;100.00
69766;BME280;57039;48.014;21.384;2022-10-30T04:47:46;101449.31;;;11.80;100.00
69766;BME280;57039;48.014;21.384;2022-10-30T04:48:51;101454.53;;;11.82;100.00
69766;BME280;57039;48.014;21.384;2022-10-30T04:49:55;101444.00;;;11.82;100.00
69766;BME280;57039;48.014;21.384;2022-10-30T04:50:59;101439.53;;;11.84;100.00
69766;BME280;57039;48.014;21.384;2022-10-30T04:52:02;101437.81;;;11.83;100.00
69766;BME280;57039;48.014;21.384;2022-10-30T04:53:09;101435.19;;;11.83;100.00
69766;BME280;57039;48.014;21.384;2022-10-30T04:54:13;101429.94;;;11.83;100.00
69766;BME280;57039;48.014;21.384;2022-10-30T04:55:16;101426.47;;;11.82;100.00
69766;BME280;57039;48.014;21.384;2022-10-30T04:56:19;101434.25;;;11.84;100.00
69766;BME280;57039;48.014;21.384;2022-10-30T04:57:22;101438.66;;;11.85;100.00
69766;BME280;57039;48.014;21.384;2022-10-30T04:58:25;101438.66;;;11.85;100.00
69766;BME280;57039;48.014;21.384;2022-10-30T04:59:28;101432.47;;;11.86;100.00
69766;BME280;57039;48.014;21.384;2022-10-30T05:00:31;101428.97;;;11.85;100.00
69766;BME280;57039;48.014;21.384;2022-10-30T05:01:34;101440.44;;;11.83;100.00
69766;BME280;57039;48.014;21.384;2022-10-30T05:02:38;101430.88;;;11.82;100.00
69766;BME280;57039;48.014;21.384;2022-10-30T05:03:41;101429.94;;;11.83;100.00
69766;BME280;57039;48.014;21.384;2022-10-30T05:04:44;101424.72;;;11.81;100.00
69766;BME280;57039;48.014;21.384;2022-10-30T05:05:55;101429.16;;;11.81;100.00
69766;BME280;57039;48.014;21.384;2022-10-30T05:06:59;101429.16;;;11.81;100.00
69766;BME280;57039;48.014;21.384;2022-10-30T05:08:02;101434.41;;;11.81;100.00
69766;BME280;57039;48.014;21.384;2022-10-30T05:09:05;101418.91;;;11.75;100.00
69766;BME280;57039;48.014;21.384;2022-10-30T05:10:12;101441.44;;;11.80;100.00
69766;BME280;57039;48.014;21.384;2022-10-30T05:11:19;101444.91;;;11.81;100.00
69766;BME280;57039;48.014;21.384;2022-10-30T05:12:22;101452.88;;;11.79;100.00
69766;BME280;57039;48.014;21.384;2022-10-30T05:13:25;101450.31;;;11.78;100.00
69766;BME280;57039;48.014;21.384;2022-10-30T05:14:29;101455.53;;;11.79;100.00
69766;BME280;57039;48.014;21.384;2022-10-30T05:15:32;101452.94;;;11.78;100.00
69766;BME280;57039;48.014;21.384;2022-10-30T05:16:35;101442.78;;;11.70;100.00
69766;BME280;57039;48.014;21.384;2022-10-30T05:17:39;101456.38;;;11.80;100.00
69766;BME280;57039;48.014;21.384;2022-10-30T05:18:43;101458.16;;;11.79;100.00
69766;BME280;57039;48.014;21.384;2022-10-30T05:19:45;101453.75;;;11.80;100.00
69766;BME280;57039;48.014;21.384;2022-10-30T05:20:48;101455.44;;;11.81;100.00
69766;BME280;57039;48.014;21.384;2022-10-30T05:21:51;101445.12;;;11.76;100.00
69766;BME280;57039;48.014;21.384;2022-10-30T05:22:55;101455.28;;;11.84;100.00
69766;BME280;57039;48.014;21.384;2022-10-30T05:23:58;101457.16;;;11.82;100.00
69766;BME280;57039;48.014;21.384;2022-10-30T05:25:01;101459.72;;;11.83;100.00
69766;BME280;57039;48.014;21.384;2022-10-30T05:26:04;101451.97;;;11.80;100.00
69766;BME280;57039;48.014;21.384;2022-10-30T05:27:07;101455.28;;;11.84;100.00
69766;BME280;57039;48.014;21.384;2022-10-30T05:28:10;101449.19;;;11.83;100.00
69766;BME280;57039;48.014;21.384;2022-10-30T05:29:13;101450.19;;;11.81;100.00
69766;BME280;57039;48.014;21.384;2022-10-30T05:30:16;101445.72;;;11.83;100.00
69766;BME280;57039;48.014;21.384;2022-10-30T05:31:19;101453.50;;;11.84;100.00
69766;BME280;57039;48.014;21.384;2022-10-30T05:32:24;101446.53;;;11.85;100.00
69766;BME280;57039;48.014;21.384;2022-10-30T05:33:28;101447.41;;;11.84;100.00
69766;BME280;57039;48.014;21.384;2022-10-30T05:34:31;101445.00;;;11.79;100.00
69766;BME280;57039;48.014;21.384;2022-10-30T05:35:34;101436.13;;;11.82;100.00
69766;BME280;57039;48.014;21.384;2022-10-30T05:36:37;101434.41;;;11.81;100.00
69766;BME280;57039;48.014;21.384;2022-10-30T05:37:42;101431.00;;;11.79;100.00
69766;BME280;57039;48.014;21.384;2022-10-30T05:38:46;101423.13;;;11.79;100.00
69766;BME280;57039;48.014;21.384;2022-10-30T05:39:51;101419.69;;;11.77;100.00
69766;BME280;57039;48.014;21.384;2022-10-30T05:40:55;101431.00;;;11.79;100.00
69766;BME280;57039;48.014;21.384;2022-10-30T05:41:58;101440.59;;;11.80;100.00
69766;BME280;57039;48.014;21.384;2022-10-30T05:43:04;101447.53;;;11.81;100.00
69766;BME280;57039;48.014;21.384;2022-10-30T05:44:07;101452.81;;;11.81;100.00
69766;BME280;57039;48.014;21.384;2022-10-30T05:45:09;101465.06;;;11.82;100.00
69766;BME280;57039;48.014;21.384;2022-10-30T05:46:13;101475.56;;;11.82;100.00